Flight Track Log - Related Links

Times and Time Zones

All times are in EDT time to prevent confusion due to time zone crossing. See the ACA831 flight status page for this flight to view local times or setup timezone preferences in your user account.

Time Position Orientation Groundspeed Altitude Reporting Facility
EDT Latitude Longitude Course Direction KTS MPH feet Rate Location/Type
Mon 03:58:50 PM 45.4600 -73.7500 19° North 1 1  Level FlightAware ADS-B
Mon 04:04:05 PM 45.4600 -73.7530 270° West 13 15 31 Level FlightAware ADS-B
Mon 04:04:35 PM 45.4610 -73.7520 35° Northeast 16 18 51 Level FlightAware ADS-B
Mon 04:05:35 PM 45.4640 -73.7500 25° Northeast 18 21 55 Level FlightAware ADS-B
Mon 04:06:00 PM 45.4660 -73.7500 360° North 15 17 63 Level FlightAware ADS-B
Mon 04:06:30 PM 45.4670 -73.7480 55° Northeast 17 20 68 Level FlightAware ADS-B
Mon 04:06:55 PM 45.4670 -73.7450 90° East 20 23 74 Level FlightAware ADS-B
Mon 04:07:05 PM 45.4670 -73.7430 90° East 23 26 80 Level FlightAware ADS-B
Mon 04:09:00 PM 45.4323 -74.0977 264° West  Level FlightAware Approximate
Mon 04:09:21 PM 45.4700 -73.7290 264° West 29 33  Level FlightAware ADS-B
Mon 04:09:45 PM 45.4730 -73.7260 35° Northeast 32 37 156 Level FlightAware ADS-B
Mon 04:10:11 PM 45.4750 -73.7220 55° Northeast 36 41 185 Level FlightAware ADS-B
Mon 04:10:41 PM 45.4780 -73.7180 43° Northeast 13 15 231 Level FlightAware ADS-B
Mon 04:11:24 PM 45.4770 -73.7160 125° Southeast 16 18 324 Level FlightAware ADS-B
Mon 04:11:55 PM 45.4650 -73.7320 223° Southwest 155 178 400 1,560 Climbing FlightAware ADS-B
Mon 04:12:14 PM 45.4560 -73.7430 221° Southwest 153 176 1,300 3,143 Climbing FlightAware ADS-B
Mon 04:12:37 PM 45.4420 -73.7610 222° Southwest 166 191 2,600 2,706 Climbing FlightAware ADS-B
Mon 04:13:05 PM 45.4240 -73.7850 223° Southwest 208 239 3,600 2,550 Climbing FlightAware ADS-B
Mon 04:13:17 PM 45.4170 -73.7990 235° Southwest 216 249 4,300 3,000 Climbing FlightAware ADS-B
Mon 04:13:29 PM 45.4130 -73.8150 250° West 226 260 4,800 3,000 Climbing FlightAware ADS-B
Mon 04:13:41 PM 45.4100 -73.8340 257° West 238 274 5,500 3,143 Climbing FlightAware ADS-B
Mon 04:14:11 PM 45.4000 -73.8800 253° West 251 289 7,000 1,714 Climbing FlightAware ADS-B
Mon 04:14:37 PM 45.3890 -73.9220 250° West 253 291 7,100 105 Climbing FlightAware ADS-B
Mon 04:15:08 PM 45.3840 -73.9700 262° West 248 285 7,100  Level FlightAware ADS-B
Mon 04:15:37 PM 45.3870 -74.0150 275° West 246 283 7,100  Level FlightAware ADS-B
Mon 04:16:02 PM 45.3900 -74.0570 276° West 247 284 7,100 218 Level FlightAware ADS-B
Mon 04:16:32 PM 45.3930 -74.1060 275° West 249 287 7,300 1,200 Climbing FlightAware ADS-B
Mon 04:16:47 PM 45.3950 -74.1300 277° West 247 284 8,000 2,914 Climbing FlightAware ADS-B
Mon 04:17:07 PM 45.3970 -74.1560 276° West 251 289 9,000 3,000 Climbing FlightAware ADS-B
Mon 04:17:57 PM 45.4040 -74.2530 276° West 302 348 11,500 3,099 Climbing FlightAware ADS-B
Mon 04:18:38 PM 45.4100 -74.3350 276° West 322 371 13,700 3,333 Climbing FlightAware ADS-B
Mon 04:19:36 PM 45.4110 -74.4650 271° West 345 397 17,000 3,255 Climbing FlightAware ADS-B
Mon 04:20:12 PM 45.3970 -74.5480 257° West 360 414 18,800 2,854 Climbing FlightAware ADS-B
Mon 04:20:58 PM 45.3790 -74.6550 257° West 376 433 20,900 2,651 Climbing FlightAware ADS-B
Mon 04:21:38 PM 45.3620 -74.7520 256° West 388 447 22,600 2,512 Climbing FlightAware ADS-B
Mon 04:22:24 PM 45.3420 -74.8710 257° West 403 464 24,500 2,442 Climbing FlightAware ADS-B
Mon 04:23:04 PM 45.3250 -74.9750 257° West 412 474 26,100 2,154 Climbing FlightAware ADS-B
Mon 04:23:42 PM 45.3070 -75.0740 256° West 424 488 27,300 1,929 Climbing FlightAware ADS-B
Mon 04:24:28 PM 45.2850 -75.2020 256° West 436 502 28,800 2,318 Climbing FlightAware ADS-B
Mon 04:25:10 PM 45.2650 -75.3190 256° West 432 497 30,700 2,372 Climbing FlightAware ADS-B
Mon 04:25:54 PM 45.2440 -75.4380 256° West 431 496 32,200 2,071 Climbing FlightAware ADS-B
Mon 04:26:34 PM 45.2250 -75.5470 256° West 428 493 33,600 1,421 Climbing FlightAware ADS-B
Mon 04:27:10 PM 45.2080 -75.6380 255° West 433 498 34,000 286 Climbing FlightAware ADS-B
Mon 04:27:58 PM 45.1850 -75.7670 256° West 435 501 34,000  Level FlightAware ADS-B
Mon 04:28:38 PM 45.1650 -75.8790 256° West 430 495 34,000  Level FlightAware ADS-B
Mon 04:29:24 PM 45.1420 -76.0050 256° West 426 490 34,000  Level FlightAware ADS-B
Mon 04:30:04 PM 45.1220 -76.1110 255° West 424 488 34,000  Level FlightAware ADS-B
Mon 04:30:42 PM 45.1030 -76.2110 255° West 423 487 34,000  Level FlightAware ADS-B
Mon 04:31:19 PM 45.0730 -76.3010 245° Southwest 426 490 34,000  Level FlightAware ADS-B
Mon 04:32:00 PM 45.0330 -76.4040 241° Southwest 422 486 34,000  Level FlightAware ADS-B
Mon 04:32:40 PM 44.9960 -76.5000 241° Southwest 419 482 34,000  Level FlightAware ADS-B
Mon 04:33:28 PM 44.9610 -76.6180 247° West 418 481 34,000  Level FlightAware ADS-B
Mon 04:34:06 PM 44.9330 -76.7160 248° West 418 481 34,000  Level FlightAware ADS-B
Mon 04:34:48 PM 44.9040 -76.8210 249° West 421 484 34,000  Level FlightAware ADS-B
Mon 04:35:30 PM 44.8730 -76.9300 248° West 422 486 34,000  Level FlightAware ADS-B
Mon 04:36:16 PM 44.8400 -77.0480 249° West 423 487 34,000  Level FlightAware ADS-B
Mon 04:36:58 PM 44.8090 -77.1560 248° West 425 489 34,000  Level FlightAware ADS-B
Mon 04:37:40 PM 44.7790 -77.2620 248° West 426 490 34,000  Level FlightAware ADS-B
Mon 04:38:20 PM 44.7490 -77.3670 248° West 429 494 34,000  Level FlightAware ADS-B
Mon 04:39:00 PM 44.7220 -77.4600 248° West 429 494 34,000  Level FlightAware ADS-B
Mon 04:39:42 PM 44.6910 -77.5670 248° West 429 494 34,000  Level FlightAware ADS-B
Mon 04:40:37 PM 44.6470 -77.7200 248° West 431 496 34,000  Level FlightAware ADS-B
Mon 04:41:22 PM 44.6140 -77.8340 248° West 431 496 34,000  Level FlightAware ADS-B
Mon 04:42:07 PM 44.5800 -77.9520 248° West 432 497 34,000 -150 Level FlightAware ADS-B
Mon 04:42:42 PM 44.5530 -78.0430 247° West 417 480 33,800 -1,575 Descending FlightAware ADS-B
Mon 04:43:27 PM 44.5210 -78.1510 247° West 421 484 31,900 -3,000 Descending FlightAware ADS-B
Mon 04:44:12 PM 44.4870 -78.2670 248° West 435 501 29,300 -3,529 Descending FlightAware ADS-B
Mon 04:44:52 PM 44.4570 -78.3680 247° West 445 512 26,900 -3,450 Descending FlightAware ADS-B
Mon 04:45:32 PM 44.4230 -78.4790 247° West 443 510 24,700 -3,671 Descending FlightAware ADS-B
Mon 04:46:17 PM 44.3880 -78.5970 247° West 450 518 21,700 -3,400 Descending FlightAware ADS-B
Mon 04:47:02 PM 44.3390 -78.7110 239° Southwest 430 495 19,600 -3,035 Descending FlightAware ADS-B
Mon 04:47:42 PM 44.2840 -78.7860 224° Southwest 404 465 17,400 -3,704 Descending FlightAware ADS-B
Mon 04:48:23 PM 44.2300 -78.8550 222° Southwest 391 450 14,600 -3,459 Descending FlightAware ADS-B
Mon 04:49:07 PM 44.1740 -78.9270 223° Southwest 352 405 12,500 -2,786 Descending FlightAware ADS-B
Mon 04:49:47 PM 44.1270 -78.9870 223° Southwest 318 366 10,700 -2,100 Descending FlightAware ADS-B
Mon 04:50:27 PM 44.0880 -79.0380 223° Southwest 278 320 9,700 -1,629 Descending FlightAware ADS-B
Mon 04:50:57 PM 44.0600 -79.0730 222° Southwest 263 303 8,800 -1,200 Descending FlightAware ADS-B
Mon 04:51:27 PM 44.0340 -79.1060 222° Southwest 247 284 8,500 -632 Descending FlightAware ADS-B
Mon 04:51:54 PM 44.0130 -79.1320 222° Southwest 237 273 8,200 -545 Descending FlightAware ADS-B
Mon 04:52:22 PM 43.9900 -79.1630 224° Southwest 238 274 8,000 -226 Descending FlightAware ADS-B
Mon 04:52:47 PM 43.9690 -79.1880 221° Southwest 239 275 8,000  Level FlightAware ADS-B
Mon 04:53:12 PM 43.9490 -79.2140 223° Southwest 238 274 8,000  Level FlightAware ADS-B
Mon 04:53:32 PM 43.9320 -79.2350 222° Southwest 240 276 8,000  Level FlightAware ADS-B
Mon 04:53:57 PM 43.9110 -79.2620 223° Southwest 239 275 8,000  Level FlightAware ADS-B
Mon 04:54:17 PM 43.8950 -79.2820 222° Southwest 240 276 8,000 -267 Level FlightAware ADS-B
Mon 04:54:42 PM 43.8750 -79.3080 223° Southwest 237 273 7,800 -750 Descending FlightAware ADS-B
Mon 04:54:57 PM 43.8630 -79.3250 226° Southwest 236 272 7,500 -1,286 Descending FlightAware ADS-B
Mon 04:55:24 PM 43.8440 -79.3520 226° Southwest 235 270 6,900 -1,200 Descending FlightAware ADS-B
Mon 04:55:37 PM 43.8350 -79.3660 228° Southwest 231 266 6,700 -632 Descending FlightAware ADS-B
Mon 04:56:02 PM 43.8160 -79.3930 226° Southwest 211 243 6,500 -545 Descending FlightAware ADS-B
Mon 04:56:32 PM 43.7970 -79.4210 227° Southwest 189 217 6,200 -1,000 Descending FlightAware ADS-B
Mon 04:57:02 PM 43.7800 -79.4440 224° Southwest 169 194 5,500 -1,418 Descending FlightAware ADS-B
Mon 04:57:27 PM 43.7660 -79.4640 226° Southwest 164 189 4,900 -1,600 Descending FlightAware ADS-B
Mon 04:57:47 PM 43.7560 -79.4790 227° Southwest 159 183 4,300 -1,867 Descending FlightAware ADS-B
Mon 04:58:12 PM 43.7440 -79.4980 229° Southwest 162 186 3,500 -1,964 Descending FlightAware ADS-B
Mon 04:58:42 PM 43.7290 -79.5190 225° Southwest 162 186 2,500 -2,100 Descending FlightAware ADS-B
Mon 04:58:52 PM 43.7230 -79.5270 224° Southwest 162 186 2,100 -1,543 Descending FlightAware ADS-B
Mon 04:59:17 PM 43.7110 -79.5460 229° Southwest 142 163 1,600 -857 Descending FlightAware ADS-B
Mon 05:00:02 PM 43.6910 -79.5740 225° Southwest 135 155 1,100 -764 Descending FlightAware ADS-B
Mon 05:00:12 PM 43.6870 -79.5810 232° Southwest 139 160 900 -293 Descending FlightAware ADS-B
Mon 05:00:43 PM 43.6750 -79.5970 224° Southwest 140 161 900  Level FlightAware ADS-B

Login

Don't have an account? Register now (free) for customized features, flight alerts, and more!